Time;durP1;ratioP1;P1;durP2;ratioP2;P2;SDS_P1;SDS_P2;PMS_P1;PMS_P2;Temp;Humidity;BMP_temperature;BMP_pressure;BME280_temperature;BME280_humidity;BME280_pressure;Samples;Min_cycle;Max_cycle;Signal;HPM_P1;HPM_P2
2022/11/22 00:01:46;;;;;;;9.73;2.97;;;6.70;99.90;;;;;;5111501;28;20193;-77
2022/11/22 00:04:13;;;;;;;3.93;1.73;;;6.70;99.90;;;;;;5112246;27;20218;-75
2022/11/22 00:06:38;;;;;;;5.00;1.30;;;6.70;99.90;;;;;;5112648;28;20493;-76
2022/11/22 00:09:04;;;;;;;3.40;1.80;;;6.70;99.90;;;;;;5111603;28;20557;-76
2022/11/22 00:11:29;;;;;;;2.70;1.60;;;6.70;99.90;;;;;;5112437;28;20185;-76
2022/11/22 00:13:55;;;;;;;4.90;1.60;;;6.70;99.90;;;;;;5112261;28;20184;-77
2022/11/22 00:16:20;;;;;;;3.70;1.73;;;6.70;99.90;;;;;;5112326;28;20173;-77
2022/11/22 00:18:46;;;;;;;3.03;1.70;;;6.70;99.90;;;;;;5112719;28;20530;-76
2022/11/22 00:21:11;;;;;;;1.87;1.40;;;6.70;99.90;;;;;;5112523;28;20204;-77
2022/11/22 00:23:37;;;;;;;7.77;2.20;;;6.70;99.90;;;;;;5111145;28;20821;-77
2022/11/22 00:26:02;;;;;;;3.00;2.20;;;6.60;99.90;;;;;;5111686;28;20536;-76
2022/11/22 00:28:28;;;;;;;2.80;1.80;;;6.70;99.90;;;;;;5112520;28;20196;-76
2022/11/22 00:30:53;;;;;;;3.60;1.73;;;6.60;99.90;;;;;;5112560;28;20531;-77
2022/11/22 00:33:19;;;;;;;6.27;2.10;;;6.70;99.90;;;;;;5112796;28;20666;-76
2022/11/22 00:35:45;;;;;;;5.03;2.10;;;6.70;99.90;;;;;;5111778;28;20157;-75
2022/11/22 00:38:10;;;;;;;4.40;1.70;;;6.70;99.90;;;;;;5112334;28;20176;-76
2022/11/22 00:40:36;;;;;;;2.47;1.63;;;6.70;99.90;;;;;;5112433;28;20414;-75
2022/11/22 00:43:01;;;;;;;3.53;2.40;;;6.70;99.90;;;;;;5112298;28;20192;-76
2022/11/22 00:45:27;;;;;;;6.50;2.30;;;6.70;99.90;;;;;;5112180;28;20191;-76
2022/11/22 00:47:52;;;;;;;1.70;1.60;;;6.70;99.90;;;;;;5112066;28;20602;-76
2022/11/22 00:50:18;;;;;;;3.53;1.80;;;6.70;99.90;;;;;;5112164;28;20173;-76
2022/11/22 00:52:43;;;;;;;2.83;1.93;;;6.70;99.90;;;;;;5112381;28;20181;-76
2022/11/22 00:55:09;;;;;;;2.50;1.90;;;6.80;99.90;;;;;;5112200;28;20210;-76
2022/11/22 00:57:34;;;;;;;10.40;3.30;;;6.70;99.90;;;;;;5111147;28;20207;-76
2022/11/22 01:00:00;;;;;;;3.50;1.93;;;6.70;99.90;;;;;;5111824;28;20570;-76
2022/11/22 01:02:26;;;;;;;8.33;2.43;;;6.70;99.90;;;;;;5111964;28;20189;-76
2022/11/22 01:04:51;;;;;;;2.80;1.90;;;6.80;99.90;;;;;;5111803;28;20194;-75
2022/11/22 01:07:17;;;;;;;4.80;1.50;;;6.90;99.90;;;;;;5112016;28;20161;-75
2022/11/22 01:09:42;;;;;;;2.00;1.60;;;6.80;99.90;;;;;;5112165;28;20687;-76
2022/11/22 01:12:08;;;;;;;2.23;1.47;;;6.70;99.90;;;;;;5111949;28;20259;-76
2022/11/22 01:14:33;;;;;;;1.73;1.33;;;6.70;99.90;;;;;;5111830;28;20187;-75
2022/11/22 01:16:59;;;;;;;8.40;1.20;;;6.70;99.90;;;;;;5110956;28;20165;-77
2022/11/22 01:19:24;;;;;;;4.10;1.17;;;6.70;99.90;;;;;;5111829;28;20230;-76
2022/11/22 01:21:50;;;;;;;1.40;1.13;;;6.60;99.90;;;;;;5110453;28;20208;-76
2022/11/22 01:24:15;;;;;;;1.77;1.40;;;6.60;99.90;;;;;;5111786;28;20177;-76
2022/11/22 01:26:41;;;;;;;1.87;1.17;;;6.50;99.90;;;;;;5112047;28;20191;-77
2022/11/22 01:29:06;;;;;;;2.17;1.40;;;6.50;99.90;;;;;;5111731;28;20587;-76
2022/11/22 01:31:32;;;;;;;3.20;1.40;;;6.50;99.90;;;;;;5111692;28;20685;-76
2022/11/22 01:33:58;;;;;;;8.33;1.10;;;6.40;99.90;;;;;;5111842;28;20168;-75
2022/11/22 01:36:24;;;;;;;3.63;1.17;;;6.40;99.90;;;;;;5112220;28;20195;-75
2022/11/22 01:38:49;;;;;;;1.30;1.13;;;6.30;99.90;;;;;;5116026;28;20169;-75
2022/11/22 01:41:15;;;;;;;1.20;1.00;;;6.30;99.90;;;;;;5114195;28;20414;-76
2022/11/22 01:43:41;;;;;;;4.70;1.50;;;6.20;99.90;;;;;;5115819;28;20226;-77
2022/11/22 01:46:13;;;;;;;2.50;1.40;;;6.20;99.90;;;;;;5114210;28;20175;-76
2022/11/22 01:48:56;;;;;;;1.10;0.83;;;6.10;99.90;;;;;;5115587;27;20212;-76
2022/11/22 01:51:22;;;;;;;1.00;0.73;;;6.10;99.90;;;;;;5114358;28;20453;-76
2022/11/22 01:53:47;;;;;;;2.90;0.80;;;6.00;99.90;;;;;;5113750;28;20456;-76
2022/11/22 01:56:16;;;;;;;4.23;0.77;;;6.00;99.90;;;;;;5115231;28;20161;-76
2022/11/22 01:58:46;;;;;;;3.40;1.23;;;5.90;99.90;;;;;;5115390;28;20173;-76
2022/11/22 02:01:11;;;;;;;1.10;0.77;;;5.90;99.90;;;;;;5115189;28;20455;-76
2022/11/22 02:03:39;;;;;;;1.40;1.00;;;5.90;99.90;;;;;;5115235;28;20415;-75
2022/11/22 02:06:06;;;;;;;1.60;0.90;;;5.90;99.90;;;;;;5114772;28;20311;-75
2022/11/22 02:08:48;;;;;;;1.30;0.90;;;5.90;99.90;;;;;;5115062;27;20800;-75
2022/11/22 02:11:14;;;;;;;1.60;1.10;;;5.80;99.90;;;;;;5114847;28;20477;-74
2022/11/22 02:13:42;;;;;;;3.00;0.70;;;5.70;99.90;;;;;;5115077;28;20496;-77
2022/11/22 02:16:09;;;;;;;2.13;0.67;;;5.70;99.90;;;;;;5114813;28;20407;-76
2022/11/22 02:18:35;;;;;;;5.80;1.10;;;5.70;99.90;;;;;;5114887;28;20547;-77
2022/11/22 02:21:02;;;;;;;2.47;1.33;;;5.70;99.90;;;;;;5115009;28;20410;-77
2022/11/22 02:23:34;;;;;;;1.47;0.97;;;5.70;99.90;;;;;;5113490;28;20956;-75
2022/11/22 02:26:01;;;;;;;2.17;0.97;;;5.60;99.90;;;;;;5114585;28;20952;-75
2022/11/22 02:28:29;;;;;;;2.60;1.20;;;5.60;99.90;;;;;;5114498;28;20452;-77
2022/11/22 02:30:55;;;;;;;1.03;0.67;;;5.50;99.90;;;;;;5114705;28;20511;-76
2022/11/22 02:33:20;;;;;;;5.20;1.80;;;5.40;99.90;;;;;;5113368;28;20518;-73
2022/11/22 02:35:46;;;;;;;1.20;0.70;;;5.30;99.90;;;;;;5114386;28;20161;-74
2022/11/22 02:38:20;;;;;;;1.30;0.87;;;5.20;99.90;;;;;;5113284;28;20218;-75
2022/11/22 02:40:52;;;;;;;3.30;0.83;;;5.10;99.90;;;;;;5114385;28;20194;-75
2022/11/22 02:43:21;;;;;;;1.47;1.00;;;5.00;99.90;;;;;;5114602;28;20421;-74
2022/11/22 02:45:47;;;;;;;1.50;1.00;;;5.00;99.90;;;;;;5114260;28;20405;-74
2022/11/22 02:48:15;;;;;;;1.53;1.23;;;5.00;99.90;;;;;;5113714;28;20802;-75
2022/11/22 02:50:41;;;;;;;1.30;0.90;;;4.90;99.90;;;;;;5114411;28;20165;-75
2022/11/22 02:53:08;;;;;;;2.23;1.03;;;4.80;99.90;;;;;;5113896;28;20431;-75
2022/11/22 02:55:34;;;;;;;3.23;1.00;;;4.80;99.90;;;;;;5114051;28;20571;-75
2022/11/22 02:58:00;;;;;;;1.83;1.07;;;4.80;99.90;;;;;;5114242;28;20862;-75
2022/11/22 03:00:25;;;;;;;1.20;0.90;;;4.70;99.90;;;;;;5114166;28;20478;-77
2022/11/22 03:02:51;;;;;;;3.53;1.20;;;4.70;99.90;;;;;;5112798;28;20634;-76
2022/11/22 03:05:17;;;;;;;2.67;1.63;;;4.70;99.90;;;;;;5113444;28;20585;-76
2022/11/22 03:07:42;;;;;;;3.20;1.80;;;4.80;99.90;;;;;;5112539;28;20173;-76
2022/11/22 03:10:08;;;;;;;2.63;1.20;;;4.80;99.90;;;;;;5112767;28;20724;-76
2022/11/22 03:12:34;;;;;;;2.67;1.10;;;4.80;99.90;;;;;;5113904;28;20185;-75
2022/11/22 03:14:59;;;;;;;1.97;1.27;;;4.80;99.90;;;;;;5113633;28;20405;-75
2022/11/22 03:17:25;;;;;;;4.30;1.80;;;4.70;99.90;;;;;;5113560;28;20176;-77
2022/11/22 03:19:50;;;;;;;3.47;1.50;;;4.80;99.90;;;;;;5113868;28;20173;-75
2022/11/22 03:22:16;;;;;;;4.40;1.37;;;4.90;99.90;;;;;;5113624;28;20215;-77
2022/11/22 03:24:41;;;;;;;5.50;1.50;;;5.00;99.90;;;;;;5113422;28;20573;-74
2022/11/22 03:27:07;;;;;;;3.63;1.90;;;5.00;99.90;;;;;;5113667;28;20173;-74
2022/11/22 03:29:32;;;;;;;6.03;1.90;;;5.10;99.90;;;;;;5113320;28;20567;-74
2022/11/22 03:31:58;;;;;;;6.63;1.90;;;5.20;99.90;;;;;;5113456;28;20185;-74
2022/11/22 03:34:24;;;;;;;5.40;1.30;;;5.20;99.90;;;;;;5113187;28;20161;-74
2022/11/22 03:36:49;;;;;;;2.60;1.27;;;5.30;99.90;;;;;;5113121;28;20169;-75
2022/11/22 03:39:15;;;;;;;5.80;1.53;;;5.40;99.90;;;;;;5111922;28;20670;-74
2022/11/22 03:41:40;;;;;;;8.47;1.83;;;5.40;99.90;;;;;;5113161;28;20189;-74
2022/11/22 03:44:06;;;;;;;2.63;1.40;;;5.40;99.90;;;;;;5113085;28;20218;-74
2022/11/22 03:46:31;;;;;;;6.70;1.50;;;5.40;99.90;;;;;;5111841;28;20172;-76
2022/11/22 03:48:57;;;;;;;9.80;1.37;;;5.40;99.90;;;;;;5113199;28;20192;-75
2022/11/22 03:51:23;;;;;;;7.00;1.70;;;5.40;99.90;;;;;;5111806;28;20516;-74
2022/11/22 03:53:48;;;;;;;5.57;1.40;;;5.40;99.90;;;;;;5113065;28;20682;-75
2022/11/22 03:56:14;;;;;;;10.27;1.67;;;5.40;99.90;;;;;;5112590;28;20175;-76
2022/11/22 03:58:39;;;;;;;3.00;1.40;;;5.40;99.90;;;;;;5113011;28;20529;-77
2022/11/22 04:01:05;;;;;;;4.67;1.27;;;5.30;99.90;;;;;;5112160;28;20176;-75
2022/11/22 04:03:30;;;;;;;13.43;2.07;;;5.30;99.90;;;;;;5112894;28;20173;-75
2022/11/22 04:05:56;;;;;;;5.93;1.20;;;5.40;99.90;;;;;;5112514;28;20172;-75
2022/11/22 04:08:22;;;;;;;9.43;1.67;;;5.30;99.90;;;;;;5111571;28;20191;-75
2022/11/22 04:10:49;;;;;;;3.30;1.57;;;5.30;99.90;;;;;;5113000;28;20161;-75
2022/11/22 04:13:15;;;;;;;5.13;1.77;;;5.30;99.90;;;;;;5112593;28;20655;-75
2022/11/22 04:15:40;;;;;;;4.70;1.43;;;5.30;99.90;;;;;;5112456;28;20434;-75
2022/11/22 04:18:09;;;;;;;1.23;0.90;;;5.30;99.90;;;;;;5112807;28;20429;-74
2022/11/22 04:23:21;;;;;;;4.77;1.37;;;5.20;99.90;;;;;;5112538;28;20444;-75
2022/11/22 04:25:49;;;;;;;5.63;1.77;;;5.10;99.90;;;;;;5112168;28;20426;-77
2022/11/22 04:28:17;;;;;;;4.53;1.60;;;5.00;99.90;;;;;;5111241;28;20511;-77
2022/11/22 04:33:27;;;;;;;1.60;1.37;;;4.90;99.90;;;;;;5112648;28;20425;-76
2022/11/22 04:35:53;;;;;;;3.00;1.23;;;4.80;99.90;;;;;;5111930;28;20879;-76
2022/11/22 04:38:19;;;;;;;2.33;2.03;;;4.70;99.90;;;;;;5112454;28;20173;-74
2022/11/22 04:40:45;;;;;;;6.10;1.90;;;4.70;99.90;;;;;;5111196;28;20407;-76
2022/11/22 04:46:09;;;;;;;3.40;1.40;;;4.70;99.90;;;;;;5112305;28;20421;-74
2022/11/22 04:48:34;;;;;;;7.00;1.80;;;4.60;99.90;;;;;;5112334;28;20530;-75
2022/11/22 04:53:44;;;;;;;5.00;1.67;;;4.60;99.90;;;;;;5112472;28;20164;-74
2022/11/22 04:56:11;;;;;;;4.87;2.07;;;4.60;99.90;;;;;;5111638;28;20411;-76
2022/11/22 04:58:36;;;;;;;2.20;1.53;;;4.60;99.90;;;;;;5112356;28;20169;-75
2022/11/22 05:01:02;;;;;;;4.60;1.20;;;4.50;99.90;;;;;;5112316;28;20883;-75
2022/11/22 05:03:28;;;;;;;1.67;1.23;;;4.50;99.90;;;;;;5112326;28;20205;-75
2022/11/22 05:05:54;;;;;;;3.67;1.70;;;4.50;99.90;;;;;;5111771;28;20177;-75
2022/11/22 05:08:19;;;;;;;2.37;1.50;;;4.50;99.90;;;;;;5112222;28;20200;-75
2022/11/22 05:10:56;;;;;;;6.47;1.70;;;4.50;99.90;;;;;;5112203;28;20413;-75
2022/11/22 05:13:27;;;;;;;8.23;1.50;;;4.40;99.90;;;;;;5114396;28;20188;-75
2022/11/22 05:15:53;;;;;;;7.23;3.43;;;4.30;99.90;;;;;;5115885;28;20879;-74
2022/11/22 05:18:20;;;;;;;1.97;1.20;;;4.30;99.90;;;;;;5116228;28;20459;-75
2022/11/22 05:20:46;;;;;;;7.30;1.77;;;4.20;99.90;;;;;;5116078;28;20165;-75
2022/11/22 05:25:57;;;;;;;5.23;1.83;;;4.10;99.90;;;;;;5115892;28;20422;-75
2022/11/22 05:28:28;;;;;;;5.10;1.57;;;4.10;99.90;;;;;;5113102;28;20466;-77
2022/11/22 05:30:54;;;;;;;4.33;1.80;;;4.00;99.90;;;;;;5114408;28;20483;-77
2022/11/22 05:33:19;;;;;;;1.87;1.13;;;3.90;99.90;;;;;;5116256;28;20434;-77
2022/11/22 05:35:45;;;;;;;4.33;1.23;;;3.90;99.90;;;;;;5115574;28;20415;-76
2022/11/22 05:38:10;;;;;;;4.53;1.23;;;3.80;99.90;;;;;;5115719;28;20275;-77
2022/11/22 05:40:36;;;;;;;11.47;1.67;;;3.90;99.90;;;;;;5115451;28;20251;-77
2022/11/22 05:43:01;;;;;;;5.10;1.70;;;3.80;99.90;;;;;;5115519;28;20197;-77
2022/11/22 05:45:27;;;;;;;3.00;1.40;;;3.70;99.90;;;;;;5113929;28;20660;-75
2022/11/22 05:47:52;;;;;;;13.10;2.33;;;3.70;99.90;;;;;;5115428;28;20196;-77
2022/11/22 05:50:18;;;;;;;5.17;1.83;;;3.70;99.90;;;;;;5114367;28;20200;-77
2022/11/22 05:52:43;;;;;;;3.33;1.40;;;3.60;99.90;;;;;;5115173;28;20253;-76
2022/11/22 05:55:09;;;;;;;9.13;1.70;;;3.70;99.90;;;;;;5115103;28;20169;-77
2022/11/22 05:57:34;;;;;;;13.73;1.83;;;3.60;99.90;;;;;;5115414;28;20632;-77
2022/11/22 06:00:00;;;;;;;10.80;1.63;;;3.60;99.90;;;;;;5116891;28;20173;-77
2022/11/22 06:02:25;;;;;;;4.30;2.17;;;3.60;99.90;;;;;;5114568;28;20181;-75
2022/11/22 06:04:51;;;;;;;3.30;1.50;;;3.60;99.90;;;;;;5114797;28;20251;-76
2022/11/22 06:07:16;;;;;;;5.73;1.53;;;3.60;99.90;;;;;;5113828;28;20169;-77
2022/11/22 06:09:42;;;;;;;3.00;1.30;;;3.60;99.90;;;;;;5115271;28;20199;-76
2022/11/22 06:12:07;;;;;;;8.60;2.07;;;3.60;99.90;;;;;;5114800;28;20692;-77
2022/11/22 06:14:33;;;;;;;5.47;1.87;;;3.60;99.90;;;;;;5113258;28;20172;-77
2022/11/22 06:16:59;;;;;;;6.97;2.00;;;3.50;99.90;;;;;;5115072;28;20196;-77
2022/11/22 06:19:24;;;;;;;4.37;2.10;;;3.50;99.90;;;;;;5114997;28;20406;-76
2022/11/22 06:21:50;;;;;;;5.47;2.20;;;3.40;99.90;;;;;;5114616;28;20193;-76
2022/11/22 06:24:15;;;;;;;4.77;3.13;;;3.40;99.90;;;;;;5113556;28;20177;-76
2022/11/22 06:26:41;;;;;;;9.53;3.23;;;3.50;99.90;;;;;;5114297;28;20579;-75
2022/11/22 06:29:07;;;;;;;7.10;1.87;;;3.50;99.90;;;;;;5114741;28;20192;-76
2022/11/22 06:31:32;;;;;;;3.30;1.67;;;3.50;99.90;;;;;;5116275;28;20177;-76
2022/11/22 06:33:59;;;;;;;6.73;1.97;;;3.40;99.90;;;;;;5114896;28;20191;-77
2022/11/22 06:36:27;;;;;;;8.00;4.03;;;3.40;99.90;;;;;;5115734;28;20169;-76
2022/11/22 06:38:53;;;;;;;2.80;1.20;;;3.40;99.90;;;;;;5114458;28;20935;-77
2022/11/22 06:41:21;;;;;;;5.20;2.27;;;3.40;99.90;;;;;;5114453;28;20414;-76
2022/11/22 06:43:48;;;;;;;5.33;2.20;;;3.40;99.90;;;;;;5114097;28;20472;-76
2022/11/22 06:46:14;;;;;;;7.13;2.30;;;3.40;99.90;;;;;;5114393;28;20399;-77
2022/11/22 06:48:41;;;;;;;7.77;1.93;;;3.40;99.90;;;;;;5114027;28;21014;-77
2022/11/22 06:51:16;;;;;;;4.57;1.60;;;3.50;99.90;;;;;;5112863;28;20411;-76
2022/11/22 06:53:41;;;;;;;1.97;1.40;;;3.50;99.90;;;;;;5115181;28;20473;-77
2022/11/22 06:56:14;;;;;;;4.47;1.93;;;3.60;99.90;;;;;;5116951;28;20458;-78
2022/11/22 06:58:39;;;;;;;3.63;1.97;;;3.60;99.90;;;;;;5118721;28;20229;-78
2022/11/22 07:01:09;;;;;;;1.50;1.10;;;3.70;99.90;;;;;;5116005;28;20423;-75
2022/11/22 07:03:36;;;;;;;2.10;1.80;;;3.80;99.90;;;;;;5114182;28;20261;-76
2022/11/22 07:06:02;;;;;;;4.90;2.20;;;3.90;99.90;;;;;;5112524;28;20837;-77
2022/11/22 07:08:29;;;;;;;12.60;3.10;;;3.90;99.90;;;;;;5113674;28;20451;-77
2022/11/22 07:10:54;;;;;;;9.90;2.70;;;4.00;99.90;;;;;;5112760;28;20411;-76
2022/11/22 07:13:20;;;;;;;4.27;2.20;;;4.00;99.90;;;;;;5113836;28;20479;-77
2022/11/22 07:16:00;;;;;;;4.37;2.73;;;4.00;99.90;;;;;;5113662;28;20196;-75
2022/11/22 07:18:26;;;;;;;12.53;1.90;;;4.10;99.90;;;;;;5113311;28;20176;-77
2022/11/22 07:20:52;;;;;;;5.60;1.83;;;4.00;99.90;;;;;;5113516;28;20471;-76
2022/11/22 07:23:18;;;;;;;7.50;2.50;;;4.00;99.90;;;;;;5113247;28;20870;-76
2022/11/22 07:25:45;;;;;;;6.33;1.87;;;4.00;99.90;;;;;;5112737;28;20411;-75
2022/11/22 07:28:12;;;;;;;7.00;2.57;;;4.00;99.90;;;;;;5113657;28;20454;-77
2022/11/22 07:30:38;;;;;;;3.00;1.83;;;4.00;99.90;;;;;;5113016;28;20438;-77
2022/11/22 07:33:04;;;;;;;6.27;2.97;;;4.00;99.90;;;;;;5113192;28;20438;-76
2022/11/22 07:35:30;;;;;;;11.13;3.13;;;4.00;99.90;;;;;;5112926;28;20422;-77
2022/11/22 07:37:55;;;;;;;7.50;2.67;;;4.10;99.90;;;;;;5113108;28;20173;-77
2022/11/22 07:40:21;;;;;;;7.60;2.50;;;4.10;99.90;;;;;;5113217;28;20528;-77
2022/11/22 07:42:46;;;;;;;5.90;2.20;;;4.10;99.90;;;;;;5112535;28;20184;-76
2022/11/22 07:45:12;;;;;;;12.83;2.50;;;4.20;99.90;;;;;;5112781;28;20188;-77
2022/11/22 07:47:37;;;;;;;13.13;3.37;;;4.20;99.90;;;;;;5113013;28;20587;-77
2022/11/22 07:50:03;;;;;;;4.70;2.20;;;4.30;99.90;;;;;;5112797;28;20191;-77
2022/11/22 07:52:29;;;;;;;3.57;2.43;;;4.40;99.90;;;;;;5112980;28;20184;-77
2022/11/22 07:54:54;;;;;;;9.63;3.30;;;4.50;99.90;;;;;;5112547;28;20395;-77
2022/11/22 07:57:20;;;;;;;2.40;1.87;;;4.60;99.90;;;;;;5111724;28;20175;-77
2022/11/22 07:59:45;;;;;;;7.80;2.60;;;4.80;99.90;;;;;;5112799;28;20177;-77
2022/11/22 08:02:11;;;;;;;9.00;2.60;;;5.20;99.90;;;;;;5112736;28;20189;-77
2022/11/22 08:04:36;;;;;;;4.43;2.50;;;5.80;99.90;;;;;;5112265;28;20538;-77
2022/11/22 08:07:02;;;;;;;8.00;2.23;;;6.70;99.90;;;;;;5112825;28;20172;-77
2022/11/22 08:09:28;;;;;;;2.63;1.60;;;7.40;99.90;;;;;;5113003;28;20200;-77
2022/11/22 08:11:53;;;;;;;5.10;2.20;;;7.90;99.90;;;;;;5111115;28;20601;-77
2022/11/22 08:14:19;;;;;;;4.13;1.60;;;8.20;99.90;;;;;;5111009;28;20164;-77
2022/11/22 08:16:44;;;;;;;5.67;1.80;;;8.30;99.90;;;;;;5112667;28;20254;-77
2022/11/22 08:19:14;;;;;;;3.20;1.97;;;7.90;99.90;;;;;;5112455;28;20173;-77
2022/11/22 08:21:40;;;;;;;3.17;1.50;;;7.80;99.90;;;;;;5112441;28;20587;-77
2022/11/22 08:24:06;;;;;;;13.63;2.77;;;8.30;99.90;;;;;;5112200;28;20423;-77
2022/11/22 08:26:33;;;;;;;3.60;1.60;;;8.80;99.90;;;;;;5112241;28;20622;-76
2022/11/22 08:28:59;;;;;;;8.73;2.00;;;9.30;99.90;;;;;;5112381;28;20484;-77
2022/11/22 08:31:25;;;;;;;3.00;1.80;;;9.80;99.90;;;;;;5112572;28;20787;-77
2022/11/22 08:33:54;;;;;;;8.93;2.67;;;9.50;99.90;;;;;;5112593;28;20399;-77
2022/11/22 08:36:20;;;;;;;3.20;1.87;;;9.20;99.90;;;;;;5112029;28;20414;-75
2022/11/22 08:38:46;;;;;;;5.37;1.83;;;8.70;99.90;;;;;;5112330;28;20406;-75
2022/11/22 08:41:12;;;;;;;1.63;1.00;;;8.30;99.90;;;;;;5112247;28;20975;-77
2022/11/22 08:43:37;;;;;;;3.00;1.70;;;8.10;99.90;;;;;;5111006;28;20207;-77
2022/11/22 08:46:03;;;;;;;2.90;1.27;;;7.80;99.90;;;;;;5112682;28;20171;-76
2022/11/22 08:48:31;;;;;;;2.40;1.43;;;7.70;99.90;;;;;;5118220;28;20188;-77
2022/11/22 08:50:59;;;;;;;6.00;1.40;;;7.70;99.90;;;;;;5119112;27;20493;-76
2022/11/22 08:53:25;;;;;;;10.03;1.20;;;7.70;99.90;;;;;;5118950;27;20414;-77
2022/11/22 08:55:52;;;;;;;10.47;2.20;;;7.80;99.90;;;;;;5118428;28;20439;-77
2022/11/22 08:58:17;;;;;;;3.83;1.40;;;7.90;99.90;;;;;;5119128;27;20822;-73
2022/11/22 09:00:43;;;;;;;4.00;1.57;;;7.90;99.90;;;;;;5118441;28;20467;-77
2022/11/22 09:03:09;;;;;;;2.53;1.07;;;7.90;99.90;;;;;;5117778;28;20608;-77
2022/11/22 09:05:35;;;;;;;2.33;1.40;;;7.90;99.90;;;;;;5117527;28;20196;-75
2022/11/22 09:08:00;;;;;;;6.70;1.67;;;7.80;99.90;;;;;;5118961;27;20188;-77
2022/11/22 09:10:26;;;;;;;2.07;1.00;;;7.90;99.90;;;;;;5119190;27;20189;-77
2022/11/22 09:12:52;;;;;;;3.87;1.10;;;8.00;99.90;;;;;;5118635;28;20233;-77
2022/11/22 09:15:17;;;;;;;5.53;1.30;;;8.20;99.90;;;;;;5117029;28;20530;-77
2022/11/22 09:17:43;;;;;;;6.47;1.17;;;8.90;99.90;;;;;;5118977;28;20164;-77
2022/11/22 09:20:09;;;;;;;4.83;1.37;;;9.80;99.90;;;;;;5119127;27;20183;-77
2022/11/22 09:22:35;;;;;;;4.20;1.40;;;10.60;99.90;;;;;;5118379;28;20806;-76
2022/11/22 09:25:01;;;;;;;2.20;1.27;;;11.10;99.90;;;;;;5118533;28;20402;-77
2022/11/22 09:27:26;;;;;;;10.13;2.90;;;11.00;99.90;;;;;;5119084;28;20172;-77
2022/11/22 09:29:52;;;;;;;3.40;1.47;;;10.30;99.90;;;;;;5118835;28;20227;-77
2022/11/22 09:32:17;;;;;;;7.43;1.53;;;9.70;99.90;;;;;;5118801;28;20188;-76
2022/11/22 09:34:43;;;;;;;5.30;1.47;;;9.20;99.90;;;;;;5118332;28;21103;-77
2022/11/22 09:37:08;;;;;;;2.00;1.27;;;8.80;99.90;;;;;;5119011;28;20173;-78
2022/11/22 09:39:34;;;;;;;2.83;1.20;;;8.70;99.90;;;;;;5118732;28;20192;-76
2022/11/22 09:42:29;;;;;;;6.83;1.90;;;8.50;99.90;;;;;;5118855;28;20661;-76
2022/11/22 09:45:19;;;;;;;10.70;1.80;;;8.40;99.90;;;;;;5116823;28;20188;-76
2022/11/22 09:48:06;;;;;;;5.57;1.17;;;8.30;99.90;;;;;;5117206;28;20992;-77
2022/11/22 09:50:56;;;;;;;4.97;1.20;;;8.20;99.90;;;;;;5117623;28;20491;-76
2022/11/22 09:53:35;;;;;;;2.80;1.20;;;8.30;99.90;;;;;;5117333;28;20437;-78
2022/11/22 09:56:07;;;;;;;4.20;1.17;;;8.40;99.90;;;;;;5117291;28;20398;-77
2022/11/22 09:58:36;;;;;;;5.53;1.43;;;8.50;99.90;;;;;;5115321;28;20430;-77
2022/11/22 10:01:24;;;;;;;6.10;1.53;;;9.00;99.90;;;;;;5115186;28;20520;-77
2022/11/22 10:04:07;;;;;;;4.70;1.00;;;9.40;99.90;;;;;;5085277;28;20410;-77
2022/11/22 10:06:39;;;;;;;3.00;1.33;;;9.40;99.90;;;;;;5115494;28;20486;-76
2022/11/22 10:09:29;;;;;;;1.07;0.77;;;9.40;99.90;;;;;;5113742;28;20442;-77
2022/11/22 10:12:27;;;;;;;1.70;0.73;;;9.30;99.90;;;;;;5115180;28;20818;-77
2022/11/22 10:15:22;;;;;;;4.50;1.23;;;9.20;99.90;;;;;;5115129;28;20418;-78
2022/11/22 10:18:00;;;;;;;4.30;1.67;;;9.20;99.90;;;;;;5115247;28;20753;-77
2022/11/22 10:20:28;;;;;;;4.70;1.20;;;9.20;99.90;;;;;;5115273;28;20416;-77
2022/11/22 10:22:54;;;;;;;2.70;0.87;;;9.20;99.90;;;;;;5115128;28;20526;-77
2022/11/22 10:25:32;;;;;;;1.93;1.10;;;9.00;99.90;;;;;;5114885;28;20395;-77
2022/11/22 10:28:10;;;;;;;2.70;1.10;;;8.90;99.90;;;;;;5114906;28;20470;-77
2022/11/22 10:30:41;;;;;;;1.50;1.10;;;9.00;99.90;;;;;;5114886;28;20399;-76
2022/11/22 10:33:24;;;;;;;3.57;1.00;;;8.90;99.90;;;;;;5113669;28;20453;-77
2022/11/22 10:36:07;;;;;;;1.20;0.77;;;8.80;99.90;;;;;;5113319;28;20402;-77
2022/11/22 10:38:47;;;;;;;2.20;1.30;;;8.80;99.90;;;;;;5115386;28;20411;-77
2022/11/22 10:41:58;;;;;;;2.43;1.20;;;8.80;99.90;;;;;;5114653;28;20406;-77
2022/11/22 10:44:35;;;;;;;3.83;0.90;;;9.00;99.90;;;;;;5114447;28;20391;-77
2022/11/22 10:47:25;;;;;;;2.33;0.80;;;9.10;99.90;;;;;;5114554;28;20414;-78
2022/11/22 10:50:22;;;;;;;3.67;1.30;;;9.30;99.90;;;;;;5113195;28;20456;-77
2022/11/22 10:52:58;;;;;;;6.30;1.67;;;9.60;99.90;;;;;;5114900;28;20494;-77
2022/11/22 10:55:43;;;;;;;1.70;0.80;;;9.80;99.90;;;;;;5114442;27;20409;-77
2022/11/22 10:58:43;;;;;;;2.13;0.70;;;10.30;99.90;;;;;;5112812;28;20866;-77
2022/11/22 11:01:53;;;;;;;1.40;0.70;;;10.20;99.90;;;;;;5061111;28;20920;-77
2022/11/22 11:04:19;;;;;;;3.83;1.00;;;10.20;99.90;;;;;;5114076;28;20387;-77
2022/11/22 11:06:51;;;;;;;1.30;0.80;;;10.10;99.90;;;;;;5114389;28;20402;-76
2022/11/22 11:09:46;;;;;;;2.30;0.90;;;10.10;99.90;;;;;;5112237;28;20826;-76
2022/11/22 11:12:22;;;;;;;1.70;0.93;;;10.00;99.90;;;;;;5114119;28;20467;-77
2022/11/22 11:14:54;;;;;;;1.90;0.97;;;10.40;99.90;;;;;;5114328;28;20429;-78
2022/11/22 11:17:36;;;;;;;2.90;0.77;;;10.90;99.90;;;;;;5114426;28;20391;-77
2022/11/22 11:20:21;;;;;;;1.43;1.10;;;11.20;99.90;;;;;;5114076;28;20433;-77
2022/11/22 11:22:47;;;;;;;2.30;1.00;;;11.10;99.90;;;;;;5096710;28;20470;-76
2022/11/22 11:25:39;;;;;;;1.87;0.80;;;11.10;99.90;;;;;;5113952;28;20442;-78
2022/11/22 11:28:18;;;;;;;4.60;1.60;;;10.70;99.90;;;;;;5112633;28;20165;-78
2022/11/22 11:31:05;;;;;;;1.80;0.60;;;10.40;99.90;;;;;;5114210;28;20395;-77
2022/11/22 11:33:33;;;;;;;1.77;0.87;;;10.40;99.90;;;;;;5114032;28;20425;-75
2022/11/22 11:36:22;;;;;;;1.40;1.00;;;10.40;99.90;;;;;;5113375;28;20403;-76
2022/11/22 11:38:52;;;;;;;5.97;2.00;;;10.10;99.90;;;;;;5113786;28;20399;-77
2022/11/22 11:41:27;;;;;;;2.13;0.90;;;10.00;99.90;;;;;;5113495;28;20409;-77
2022/11/22 11:43:54;;;;;;;2.23;0.90;;;10.10;99.90;;;;;;5112577;28;20433;-77
2022/11/22 11:46:25;;;;;;;2.00;0.90;;;10.10;99.90;;;;;;5113104;27;20422;-77
2022/11/22 11:48:53;;;;;;;1.87;0.60;;;10.10;99.90;;;;;;5112370;28;20446;-77
2022/11/22 11:51:24;;;;;;;2.43;0.90;;;10.30;99.90;;;;;;5113760;28;20399;-77
2022/11/22 11:54:02;;;;;;;3.83;0.90;;;10.40;99.90;;;;;;5113305;28;20977;-77
2022/11/22 11:56:38;;;;;;;1.20;0.80;;;10.10;99.90;;;;;;5111810;28;20425;-77
2022/11/22 11:59:12;;;;;;;1.30;0.60;;;10.00;99.90;;;;;;5113397;28;20594;-75
2022/11/22 12:01:46;;;;;;;1.90;1.10;;;10.10;99.90;;;;;;5112340;28;21009;-77
2022/11/22 12:04:20;;;;;;;1.20;0.70;;;10.30;99.90;;;;;;5113904;28;20475;-77
2022/11/22 12:06:53;;;;;;;1.97;0.90;;;10.00;99.90;;;;;;5113875;28;20771;-77
2022/11/22 12:09:31;;;;;;;1.10;0.60;;;10.10;99.90;;;;;;5112265;28;20482;-77
2022/11/22 12:12:10;;;;;;;2.70;1.10;;;9.90;99.90;;;;;;5113504;28;20430;-77
2022/11/22 12:14:38;;;;;;;1.50;0.90;;;9.90;99.90;;;;;;5113595;28;20455;-78
2022/11/22 12:17:11;;;;;;;1.60;0.60;;;9.60;99.90;;;;;;5112207;28;20422;-76
2022/11/22 12:20:03;;;;;;;2.53;0.93;;;9.60;99.90;;;;;;5113777;28;20438;-76
2022/11/22 12:22:51;;;;;;;1.70;0.80;;;9.50;99.90;;;;;;5112097;28;20876;-77
2022/11/22 12:25:33;;;;;;;1.30;0.93;;;9.40;99.90;;;;;;5113244;28;20383;-77
2022/11/22 12:28:11;;;;;;;1.40;0.97;;;9.40;99.90;;;;;;5113408;28;20402;-77
2022/11/22 12:30:39;;;;;;;1.40;1.10;;;9.40;99.90;;;;;;5113108;28;20481;-77
2022/11/22 12:33:09;;;;;;;1.20;0.60;;;9.40;99.90;;;;;;5113202;28;20786;-77
2022/11/22 12:35:42;;;;;;;3.93;0.70;;;9.50;99.90;;;;;;5112506;28;20421;-76
2022/11/22 12:38:19;;;;;;;1.60;0.90;;;9.50;99.90;;;;;;5113148;28;20490;-77
2022/11/22 12:40:49;;;;;;;1.50;0.83;;;9.40;99.90;;;;;;5113304;28;20409;-78
2022/11/22 12:43:29;;;;;;;1.63;1.07;;;9.40;99.90;;;;;;5113138;28;20434;-78
2022/11/22 12:46:03;;;;;;;1.10;0.70;;;9.40;99.90;;;;;;5112681;28;20895;-77
2022/11/22 12:48:51;;;;;;;1.20;0.70;;;9.40;99.90;;;;;;5110873;28;20506;-78
2022/11/22 12:51:22;;;;;;;2.30;0.77;;;9.40;99.90;;;;;;5111938;28;20419;-78
2022/11/22 12:53:49;;;;;;;2.60;0.90;;;9.40;99.90;;;;;;5113218;28;20413;-76
2022/11/22 12:56:26;;;;;;;1.20;0.70;;;9.40;99.90;;;;;;5112490;28;20402;-79
2022/11/22 12:59:04;;;;;;;1.10;0.63;;;9.40;99.90;;;;;;5112859;28;20422;-74
2022/11/22 13:01:36;;;;;;;1.00;0.60;;;9.30;99.90;;;;;;5111464;28;20966;-76
2022/11/22 13:04:09;;;;;;;1.00;0.50;;;9.40;99.90;;;;;;5112522;28;20900;-76
2022/11/22 13:07:16;;;;;;;3.77;0.60;;;9.30;99.90;;;;;;5110626;28;20423;-77
2022/11/22 13:09:50;;;;;;;1.20;0.70;;;9.30;99.90;;;;;;5090711;28;20458;-78
2022/11/22 13:12:23;;;;;;;1.30;0.60;;;9.30;99.90;;;;;;5112373;28;20415;-77
2022/11/22 13:14:53;;;;;;;1.10;0.60;;;9.30;99.90;;;;;;5112352;28;20732;-77
2022/11/22 13:17:21;;;;;;;1.97;0.97;;;9.40;99.90;;;;;;5111561;28;20411;-74
2022/11/22 13:19:59;;;;;;;1.00;0.60;;;9.40;99.90;;;;;;5111162;28;20475;-77
2022/11/22 13:22:34;;;;;;;1.00;0.60;;;9.40;99.90;;;;;;5112717;28;20916;-77